首页
METAR-TAF:

METAR-TAF

机场 :

Air Force Base

Langley, 弗吉尼亚州, 美国

纬度: 37-05N, 经度: 076-21W, 海拔: 3米

当前天气观测

该预报发布于1小时和28分钟前的05:56 UTC
风速18节,风向,有时为23节阵风
温度 15°C
湿度 94%
气压 1012 hPa
能見度: 16.1公里
散云层高于1600英尺
多云层高于6500英尺

METAR: KLFI 240556Z 18018G23KT 10SM SCT016 BKN065 15/14 A2987 RMK PK WND 18028/13 SLP122 T01520136 10154 20128 57042 $

时间: 02:24 (07:24 UTC)

预报

该预报发布于4小时和4分钟前的03:20 UTC
预报有效从24日的 03点(UTC)到 25日的 08点(UTC)
风速15节,风向,有时为25节阵风
能見度: 9000
散云层高于3000英尺
轻雾
成为
从 24日的 13点(UTC)到 24日的 14点(UTC)
风速20节,风向
能見度: 9000
阴天层高于1500英尺
小雨
短暂存在
从 24日的 16点(UTC)到 24日的 19点(UTC)
风速20节,风向,有时为25节阵风
成为
从 24日的 18点(UTC)到 24日的 19点(UTC)
风速15节,风向西南
能見度: 8000
多云层高于600英尺
阵雨
成为
从 24日的 19点(UTC)到 24日的 20点(UTC)
风速15节,风向西
能見度: 8000
散云层高于1400英尺
阵雨
成为
从 24日的 20点(UTC)到 24日的 21点(UTC)
风速12节,风向西
能见度10公里或以上
散云层高于4000英尺

TAF: KLFI 240320Z 2403/2508 17015G25KT 9000 BR SCT030 WS020/19055KT 520203 QNH2965INS BECMG 2413/2414 17020KT 9000 -RA OVC015 WS020/19055KT 520203 QNH2957INS TEMPO 2416/2419 17020G25KT BECMG 2418/2419 22015KT 8000 SHRA BKN006 520052 QNH2948INS BECMG 2419/2420 26015KT 8000 SHRA SCT014 QNH2951INS BECMG 2420/2421 27012KT 9999 NSW SCT040 QNH2955INS TX15/2416Z TN06/2502Z

超过4000个机场的气象观测和天气预报(METAR&TAF报告)。

可查询的气象台以黄色和红色小点在地图上表示。

将鼠标移到小点上方,可查看气象台名称。

然后点击查看天气观测和预报。

如需切换地图:点击带黑十字的绿色按钮放大地图;点击带横线的绿色按钮缩小地图;或者点击绿色箭头查看邻近地区的地图。


METAR-TAF: